青森空港の過去48時間の天気

青森空港 (Aomori)

現在時刻: 10/21 20:14 JST (10/21 11:14 UTC) 以下の時間は現地時間です。

過去48時間のMETAR気象情報
時間 風向 風速(m/s) 視程 気温(℃) 湿度(%) 気圧(hPa) 天気現象
21 20:00 南南西 2 10km以上 9 93 1021
21 19:00 南南西 1 10km以上 8 93 1021
21 18:00 静穏 0 10km以上 9 93 1021
21 17:00 不定 1 10km以上 12 88 1020
21 16:00 2 10km以上 15 67 1020
21 15:00 不定 1 10km以上 17 52 1020
21 14:00 2 10km以上 18 45 1020
21 13:00 不定 1 10km以上 18 49 1020
21 12:00 西南西 2 10km以上 18 52 1021
21 11:00 西 2 10km以上 17 55 1022
21 10:00 南西 2 10km以上 16 59 1022
21 09:00 西南西 2 10km以上 15 72 1022
21 08:00 2 10km以上 15 72 1022
21 07:00 南西 3 10km以上 9 93 1022
21 06:40 南西 2 10km以上 9 93 1021
20 13:00 西 6 10km以上 16 55 1017
20 12:00 西 8 10km以上 16 59 1018
20 11:00 西 7 10km以上 16 63 1018
20 10:00 西南西 5 10km以上 15 67 1018
20 09:00 4 10km以上 13 77 1019
20 08:00 南南西 5 10km以上 12 82 1018
20 07:00 4 10km以上 11 87 1018
20 06:40 4 10km以上 11 87 1017
19 21:32 南南西 4 7000m 13 100 1013
19 21:23 南南西 4 4000m 13 100 1013 散在した霧 もや
19 21:00 南西 4 800m 13 100 1013 弱い雨 霧
19 20:41 南西 3 1200m 13 100 1013 散在した霧 弱い雨 もや
19 20:37 南西 3 1000m 13 94 1013 散在した霧 もや
19 20:23 南西 3 800m 13 94 1013
19 20:19 南西 3 1000m 13 94 1013 散在した霧 もや
RJSA 211100Z 21003KT 9999 FEW020 SCT170 OVC/// 09/08 Q1021
RJSA 211000Z 20002KT 9999 FEW020 BKN170 OVC/// 08/07 Q1021
RJSA 210900Z 00000KT 9999 FEW020 BKN170 OVC/// 09/08 Q1021
RJSA 210800Z VRB01KT 9999 FEW020 BKN170 OVC/// 12/10 Q1020
RJSA 210700Z 10003KT 080V150 9999 FEW030 OVC/// 15/09 Q1020
RJSA 210600Z VRB02KT 9999 FEW030 OVC/// 17/07 Q1020
RJSA 210500Z 01003KT 320V090 9999 FEW030 BKN/// 18/06 Q1020
RJSA 210400Z VRB02KT 9999 FEW030 BKN/// 18/07 Q1020
RJSA 210300Z 24004KT 200V300 9999 FEW020 BKN/// 18/08 Q1021
RJSA 210200Z 26004KT 210V300 9999 FEW020 BKN/// 17/08 Q1022
RJSA 210100Z 22004KT 160V260 9999 FEW020 BKN/// 16/08 Q1022
RJSA 210000Z 24004KT 9999 FEW020 BKN/// 15/10 Q1022
RJSA 202300Z 18003KT 9999 FEW020 BKN/// 15/10 Q1022
RJSA 202200Z 22005KT 9999 FEW015 SCT020 BKN/// 09/08 Q1022
RJSA 202140Z 22004KT 9999 FEW015 SCT020 BKN/// 09/08 Q1021 RMK 1CU015 3CU020 A3017
RJSA 200400Z 27012KT 240V300 9999 FEW030 SCT/// 16/07 Q1017
RJSA 200300Z 26016KT 9999 FEW030 16/08 Q1018
RJSA 200200Z 26013KT 230V300 9999 FEW030 16/09 Q1018
RJSA 200100Z 24009KT 9999 FEW020 SCT030 15/09 Q1018
RJSA 200000Z 19008KT 9999 FEW020 SCT030 13/09 Q1019
RJSA 192300Z 21009KT 170V240 9999 FEW010 SCT030 12/09 Q1018
RJSA 192200Z 19007KT 9999 FEW010 SCT030 BKN/// 11/09 Q1018
RJSA 192140Z 19008KT 9999 FEW010 SCT030 11/09 Q1017 RMK 1ST010 4CU030 A3005
RJSA 191232Z 21008KT 7000 FEW001 SCT010 BKN040 13/13 Q1013 RMK 1ST001 3ST010 7SC040 A2994
RJSA 191223Z 21007KT 4000 BCFG BR FEW001 SCT004 BKN010 13/13 Q1013 RMK 2ST001 3ST004 6ST010 A2993
RJSA 191200Z 23007KT 0800 R24/1700U FG -RA BKN001 BKN002 13/13 Q1013
RJSA 191141Z 23005KT 1200 R24/1800U BCFG -RA BR BKN001 BKN002 13/13 Q1013 RMK 5ST001 7ST002 A2993
RJSA 191137Z 23006KT 1000 R24/0900VP1800U BCFG BR BKN001 BKN002 13/12 Q1013 RMK 5ST001 7ST002 A2993
RJSA 191123Z 23006KT 0800 R24/1200VP1800D FG BKN001 BKN002 13/12 Q1013 RMK 5ST001 7ST002 A2993
RJSA 191119Z 23006KT 1000 R24/1200VP1800D BCFG BR BKN001 BKN002 13/12 Q1013 RMK 5ST001 7ST002 A2993